Marina, CA

5:58 PM PDT on August 20, 2014 (GMT -0700)
Upper Carmel Ave, Marina, CA | Change Station
CLOSE
Current Station
Personal Weather Station
Location: Marina, CA
Elevation: 72 ft
Nearby Weather Stations

Elev 72 ft 36.68 °N, 121.79 °W | Updated 13 minutes ago

Partly Cloudy
Partly Cloudy
66.7 °F
Feels Like 66.7 °F
N
6.3
Wind Variable Wind from SSW

Today
High -- | Low -- °F
--% Chance of Precip.
Yesterday
High -- | Low -- °F
Precip. -- in
6:28 AM 7:51 PM
Waning Crescent, 18% visible
Pressure 29.97 in
Visibility 10.0 miles
Clouds Few 2000 ft
Dew Point 59 °F
Humidity 77%
Rainfall 0.00 in
Snow Depth Not available.
UV 2 out of 12
Pollen 4.90 out of 12
Air Quality Not available.
Flu Activity Not available.
METAR KMRY 210054Z 24009KT 10SM FEW020 19/13 A2994 RMK AO2 SLP148 T01890128

More Conditions Fewer Conditions

Pressure 29.97 in
Visibility 10.0 miles
Clouds Few 2000 ft
Dew Point 59 °F
Humidity 77%
Rainfall 0.00 in
Snow Depth Not available.
UV 2 out of 12
Pollen 4.90 out of 12
Air Quality Not available.
Flu Activity Not available.
METAR KMRY 210054Z 24009KT 10SM FEW020 19/13 A2994 RMK AO2 SLP148 T01890128

More Conditions Fewer Conditions

10-Day Weather Forecast

Almanac

Astronomy

Aug. 20, 2014 Rise Set
Actual Time 6:28 AM PDT 7:51 PM PDT
Civil Twilight 6:01 AM PDT 8:18 PM PDT
Nautical Twilight 5:29 AM PDT 8:51 PM PDT
Astronomical Twilight 4:54 AM PDT 9:25 PM PDT
Moon 2:15 AM PDT (8/20) 4:38 PM PDT (8/20)
Length of Visible Light 14h 17m
Length of Day
13h 23m
Tomorrow will be 2m 6s shorter.
Waning Crescent, 18% of the Moon is Illuminated
Today
Waning Crescent
Aug 25
New
Sep 2
First Quarter
Sep 8
Full
Sep 15
Last Quarter

Today's Extremes

State Highs State Lows

Community

WunderPhotos

Upload Photos

1,745,823 photos uploaded!

WunderBlogs® & News

Nearby

Snow Depth

Station Depth Elevation
Leavitt Lake 0 in 9400 ft
Leavitt Meadows 0 in 7200 ft
Summit Meadow 0 in 9122 ft
Adin Mountain 0 in 6200 ft
Cedar Pass 0 in 7100 ft

Earthquake Activity

City Distance Mag. Time & Date
King City, California 58 miles 2.7 10:26 PM PDT
2014-08-15
Kettleman City, California 107 miles 2.9 11:32 PM PDT
2014-08-14
King City, California 58 miles 2.9 8:01 PM PDT
2014-08-14
Mariposa, California 111 miles 2.5 4:54 AM PDT
2014-08-14
Minimum magnitude displayed is 2.5.

Coastal Water Temperatures

Place Temperature
Monterey, CA 60.1 °F
Redwood City, CA 75.0 °F

Nearby Weather Stations